sensor_id;sensor_type;location;lat;lon;timestamp;temperature;humidity
6724;DHT22;3399;52.530;13.304;2023-11-19T00:01:01;5.30;99.90
6724;DHT22;3399;52.530;13.304;2023-11-19T00:03:26;5.30;99.90
6724;DHT22;3399;52.530;13.304;2023-11-19T00:05:52;5.30;99.90
6724;DHT22;3399;52.530;13.304;2023-11-19T00:08:18;5.30;99.90
6724;DHT22;3399;52.530;13.304;2023-11-19T00:10:44;5.30;99.90
6724;DHT22;3399;52.530;13.304;2023-11-19T00:13:09;5.20;99.90
6724;DHT22;3399;52.530;13.304;2023-11-19T00:15:35;5.30;99.90
6724;DHT22;3399;52.530;13.304;2023-11-19T00:18:01;5.30;99.90
6724;DHT22;3399;52.530;13.304;2023-11-19T00:20:30;5.30;99.90
6724;DHT22;3399;52.530;13.304;2023-11-19T00:22:55;5.30;99.90
6724;DHT22;3399;52.530;13.304;2023-11-19T00:25:21;5.20;99.90
6724;DHT22;3399;52.530;13.304;2023-11-19T00:27:49;5.20;99.90
6724;DHT22;3399;52.530;13.304;2023-11-19T00:30:16;5.10;99.90
6724;DHT22;3399;52.530;13.304;2023-11-19T00:32:42;5.10;99.90
6724;DHT22;3399;52.530;13.304;2023-11-19T00:35:08;5.20;99.90
6724;DHT22;3399;52.530;13.304;2023-11-19T00:37:35;5.30;99.90
6724;DHT22;3399;52.530;13.304;2023-11-19T00:40:01;5.30;99.90
6724;DHT22;3399;52.530;13.304;2023-11-19T00:42:26;5.20;99.90
6724;DHT22;3399;52.530;13.304;2023-11-19T00:44:52;5.30;99.90
6724;DHT22;3399;52.530;13.304;2023-11-19T00:47:18;5.40;99.90
6724;DHT22;3399;52.530;13.304;2023-11-19T00:49:49;5.40;99.90
6724;DHT22;3399;52.530;13.304;2023-11-19T00:52:15;5.50;99.90
6724;DHT22;3399;52.530;13.304;2023-11-19T00:54:41;5.40;99.90
6724;DHT22;3399;52.530;13.304;2023-11-19T00:57:06;5.40;99.90
6724;DHT22;3399;52.530;13.304;2023-11-19T00:59:32;5.50;99.90
6724;DHT22;3399;52.530;13.304;2023-11-19T01:01:58;5.40;99.90
6724;DHT22;3399;52.530;13.304;2023-11-19T01:04:28;5.50;99.90
6724;DHT22;3399;52.530;13.304;2023-11-19T01:06:54;5.60;99.90
6724;DHT22;3399;52.530;13.304;2023-11-19T01:09:20;5.50;99.90
6724;DHT22;3399;52.530;13.304;2023-11-19T01:11:45;5.50;99.90
6724;DHT22;3399;52.530;13.304;2023-11-19T01:14:10;5.50;99.90
6724;DHT22;3399;52.530;13.304;2023-11-19T01:16:36;5.60;99.90
6724;DHT22;3399;52.530;13.304;2023-11-19T01:19:01;5.50;99.90
6724;DHT22;3399;52.530;13.304;2023-11-19T01:21:30;5.60;99.90
6724;DHT22;3399;52.530;13.304;2023-11-19T01:23:57;5.60;99.90
6724;DHT22;3399;52.530;13.304;2023-11-19T01:26:22;5.60;99.90
6724;DHT22;3399;52.530;13.304;2023-11-19T01:28:48;5.60;99.90
6724;DHT22;3399;52.530;13.304;2023-11-19T01:31:17;5.70;99.90
6724;DHT22;3399;52.530;13.304;2023-11-19T01:33:42;5.60;99.90
6724;DHT22;3399;52.530;13.304;2023-11-19T01:36:08;5.60;99.90
6724;DHT22;3399;52.530;13.304;2023-11-19T01:38:35;5.60;99.90
6724;DHT22;3399;52.530;13.304;2023-11-19T01:41:01;5.50;99.90
6724;DHT22;3399;52.530;13.304;2023-11-19T01:43:46;5.50;99.90
6724;DHT22;3399;52.530;13.304;2023-11-19T01:46:13;5.50;99.90
6724;DHT22;3399;52.530;13.304;2023-11-19T01:48:45;5.60;99.90
6724;DHT22;3399;52.530;13.304;2023-11-19T01:51:12;5.50;99.90
6724;DHT22;3399;52.530;13.304;2023-11-19T01:53:39;5.50;99.90
6724;DHT22;3399;52.530;13.304;2023-11-19T01:56:07;5.60;99.90
6724;DHT22;3399;52.530;13.304;2023-11-19T01:58:35;5.60;99.90
6724;DHT22;3399;52.530;13.304;2023-11-19T02:01:00;5.60;99.90
6724;DHT22;3399;52.530;13.304;2023-11-19T02:03:31;5.60;99.90
6724;DHT22;3399;52.530;13.304;2023-11-19T02:05:56;5.60;99.90
6724;DHT22;3399;52.530;13.304;2023-11-19T02:08:23;5.60;99.90
6724;DHT22;3399;52.530;13.304;2023-11-19T02:10:48;5.50;99.90
6724;DHT22;3399;52.530;13.304;2023-11-19T02:13:14;5.40;99.90
6724;DHT22;3399;52.530;13.304;2023-11-19T02:15:41;5.50;99.90
6724;DHT22;3399;52.530;13.304;2023-11-19T02:18:23;5.30;99.90
6724;DHT22;3399;52.530;13.304;2023-11-19T02:20:53;5.40;99.90
6724;DHT22;3399;52.530;13.304;2023-11-19T02:23:20;5.50;99.90
6724;DHT22;3399;52.530;13.304;2023-11-19T02:28:31;5.50;99.90
6724;DHT22;3399;52.530;13.304;2023-11-19T02:30:58;5.60;99.90
6724;DHT22;3399;52.530;13.304;2023-11-19T02:33:23;5.40;99.90
6724;DHT22;3399;52.530;13.304;2023-11-19T02:35:50;5.50;99.90
6724;DHT22;3399;52.530;13.304;2023-11-19T02:38:16;5.40;99.90
6724;DHT22;3399;52.530;13.304;2023-11-19T02:40:42;5.50;99.90
6724;DHT22;3399;52.530;13.304;2023-11-19T02:43:08;5.50;99.90
6724;DHT22;3399;52.530;13.304;2023-11-19T02:45:34;5.60;99.90
6724;DHT22;3399;52.530;13.304;2023-11-19T02:47:59;5.60;99.90
6724;DHT22;3399;52.530;13.304;2023-11-19T02:50:27;5.60;99.90
6724;DHT22;3399;52.530;13.304;2023-11-19T02:52:54;5.70;99.90
6724;DHT22;3399;52.530;13.304;2023-11-19T02:55:22;5.60;99.90
6724;DHT22;3399;52.530;13.304;2023-11-19T02:57:49;5.60;99.90
6724;DHT22;3399;52.530;13.304;2023-11-19T03:00:15;5.60;99.90
6724;DHT22;3399;52.530;13.304;2023-11-19T03:02:41;5.60;99.90
6724;DHT22;3399;52.530;13.304;2023-11-19T03:05:15;5.60;99.90
6724;DHT22;3399;52.530;13.304;2023-11-19T03:07:42;5.60;99.90
6724;DHT22;3399;52.530;13.304;2023-11-19T03:10:10;5.50;99.90
6724;DHT22;3399;52.530;13.304;2023-11-19T03:12:39;5.60;99.90
6724;DHT22;3399;52.530;13.304;2023-11-19T03:15:05;5.70;99.90
6724;DHT22;3399;52.530;13.304;2023-11-19T03:17:31;5.70;99.90
6724;DHT22;3399;52.530;13.304;2023-11-19T03:19:56;5.80;99.90
6724;DHT22;3399;52.530;13.304;2023-11-19T03:22:22;5.70;99.90
6724;DHT22;3399;52.530;13.304;2023-11-19T03:24:47;5.80;99.90
6724;DHT22;3399;52.530;13.304;2023-11-19T03:27:15;5.70;99.90
6724;DHT22;3399;52.530;13.304;2023-11-19T03:29:41;5.80;99.90
6724;DHT22;3399;52.530;13.304;2023-11-19T03:32:06;5.90;99.90
6724;DHT22;3399;52.530;13.304;2023-11-19T03:34:32;5.80;99.90
6724;DHT22;3399;52.530;13.304;2023-11-19T03:36:57;5.80;99.90
6724;DHT22;3399;52.530;13.304;2023-11-19T03:39:23;5.60;99.90
6724;DHT22;3399;52.530;13.304;2023-11-19T03:41:50;5.50;99.90
6724;DHT22;3399;52.530;13.304;2023-11-19T03:44:16;5.40;99.90
6724;DHT22;3399;52.530;13.304;2023-11-19T03:46:42;5.40;99.90
6724;DHT22;3399;52.530;13.304;2023-11-19T03:49:07;5.40;99.90
6724;DHT22;3399;52.530;13.304;2023-11-19T03:51:33;5.40;99.90
6724;DHT22;3399;52.530;13.304;2023-11-19T03:54:00;5.40;99.90
6724;DHT22;3399;52.530;13.304;2023-11-19T03:56:25;5.30;99.90
6724;DHT22;3399;52.530;13.304;2023-11-19T03:58:52;5.30;99.90
6724;DHT22;3399;52.530;13.304;2023-11-19T04:01:18;5.30;99.90
6724;DHT22;3399;52.530;13.304;2023-11-19T04:03:43;5.30;99.90
6724;DHT22;3399;52.530;13.304;2023-11-19T04:06:09;5.20;99.90
6724;DHT22;3399;52.530;13.304;2023-11-19T04:08:35;5.20;99.90
6724;DHT22;3399;52.530;13.304;2023-11-19T04:11:02;5.30;99.90
6724;DHT22;3399;52.530;13.304;2023-11-19T04:13:28;5.40;99.90
6724;DHT22;3399;52.530;13.304;2023-11-19T04:15:53;5.30;99.90
6724;DHT22;3399;52.530;13.304;2023-11-19T04:18:19;5.30;99.90
6724;DHT22;3399;52.530;13.304;2023-11-19T04:20:44;5.30;99.90
6724;DHT22;3399;52.530;13.304;2023-11-19T04:23:10;5.20;99.90
6724;DHT22;3399;52.530;13.304;2023-11-19T04:25:36;5.20;99.90
6724;DHT22;3399;52.530;13.304;2023-11-19T04:28:02;5.30;99.90
6724;DHT22;3399;52.530;13.304;2023-11-19T04:30:28;5.30;99.90
6724;DHT22;3399;52.530;13.304;2023-11-19T04:32:54;5.30;99.90
6724;DHT22;3399;52.530;13.304;2023-11-19T04:35:19;5.20;99.90
6724;DHT22;3399;52.530;13.304;2023-11-19T04:37:45;5.30;99.90
6724;DHT22;3399;52.530;13.304;2023-11-19T04:40:11;5.20;99.90
6724;DHT22;3399;52.530;13.304;2023-11-19T04:42:37;5.30;99.90
6724;DHT22;3399;52.530;13.304;2023-11-19T04:45:06;5.30;99.90
6724;DHT22;3399;52.530;13.304;2023-11-19T04:47:32;5.40;99.90
6724;DHT22;3399;52.530;13.304;2023-11-19T04:49:58;5.40;99.90
6724;DHT22;3399;52.530;13.304;2023-11-19T04:52:24;5.40;99.90
6724;DHT22;3399;52.530;13.304;2023-11-19T04:54:49;5.40;99.90
6724;DHT22;3399;52.530;13.304;2023-11-19T04:57:15;5.40;99.90
6724;DHT22;3399;52.530;13.304;2023-11-19T04:59:40;5.40;99.90
6724;DHT22;3399;52.530;13.304;2023-11-19T05:02:09;5.40;99.90
6724;DHT22;3399;52.530;13.304;2023-11-19T05:04:34;5.50;99.90
6724;DHT22;3399;52.530;13.304;2023-11-19T05:07:00;5.40;99.90
6724;DHT22;3399;52.530;13.304;2023-11-19T05:09:26;5.40;99.90
6724;DHT22;3399;52.530;13.304;2023-11-19T05:11:51;5.40;99.90
6724;DHT22;3399;52.530;13.304;2023-11-19T05:14:17;5.30;99.90
6724;DHT22;3399;52.530;13.304;2023-11-19T05:16:45;5.30;99.90
6724;DHT22;3399;52.530;13.304;2023-11-19T05:19:10;5.30;99.90
6724;DHT22;3399;52.530;13.304;2023-11-19T05:21:36;5.30;99.90
6724;DHT22;3399;52.530;13.304;2023-11-19T05:24:02;5.30;99.90
6724;DHT22;3399;52.530;13.304;2023-11-19T05:26:30;5.30;99.90
6724;DHT22;3399;52.530;13.304;2023-11-19T05:28:56;5.30;99.90
6724;DHT22;3399;52.530;13.304;2023-11-19T05:31:22;5.40;99.90
6724;DHT22;3399;52.530;13.304;2023-11-19T05:33:47;5.40;99.90
6724;DHT22;3399;52.530;13.304;2023-11-19T05:36:14;5.40;99.90
6724;DHT22;3399;52.530;13.304;2023-11-19T05:38:40;5.40;99.90
6724;DHT22;3399;52.530;13.304;2023-11-19T05:41:05;5.40;99.90
6724;DHT22;3399;52.530;13.304;2023-11-19T05:43:32;5.50;99.90
6724;DHT22;3399;52.530;13.304;2023-11-19T05:45:58;5.40;99.90
6724;DHT22;3399;52.530;13.304;2023-11-19T05:48:25;5.40;99.90
6724;DHT22;3399;52.530;13.304;2023-11-19T05:50:51;5.40;99.90
6724;DHT22;3399;52.530;13.304;2023-11-19T05:53:17;5.50;99.90
6724;DHT22;3399;52.530;13.304;2023-11-19T05:55:42;5.50;99.90
6724;DHT22;3399;52.530;13.304;2023-11-19T05:58:27;5.40;99.90
6724;DHT22;3399;52.530;13.304;2023-11-19T06:00:55;5.40;99.90
6724;DHT22;3399;52.530;13.304;2023-11-19T06:03:21;5.40;99.90
6724;DHT22;3399;52.530;13.304;2023-11-19T06:05:48;5.50;99.90
6724;DHT22;3399;52.530;13.304;2023-11-19T06:08:13;5.50;99.90
6724;DHT22;3399;52.530;13.304;2023-11-19T06:10:43;5.60;99.90
6724;DHT22;3399;52.530;13.304;2023-11-19T06:13:14;5.60;99.90
6724;DHT22;3399;52.530;13.304;2023-11-19T06:15:41;5.50;99.90
6724;DHT22;3399;52.530;13.304;2023-11-19T06:18:07;5.50;99.90
6724;DHT22;3399;52.530;13.304;2023-11-19T06:20:33;5.50;99.90
6724;DHT22;3399;52.530;13.304;2023-11-19T06:22:59;5.60;99.90
6724;DHT22;3399;52.530;13.304;2023-11-19T06:25:25;5.60;99.90
6724;DHT22;3399;52.530;13.304;2023-11-19T06:27:51;5.60;99.90
6724;DHT22;3399;52.530;13.304;2023-11-19T06:30:17;5.60;99.90
6724;DHT22;3399;52.530;13.304;2023-11-19T06:32:42;5.60;99.90
6724;DHT22;3399;52.530;13.304;2023-11-19T06:35:08;5.60;99.90
6724;DHT22;3399;52.530;13.304;2023-11-19T06:37:35;5.70;99.90
6724;DHT22;3399;52.530;13.304;2023-11-19T06:40:00;5.60;99.90
6724;DHT22;3399;52.530;13.304;2023-11-19T06:42:26;5.70;99.90
6724;DHT22;3399;52.530;13.304;2023-11-19T06:44:51;5.60;99.90
6724;DHT22;3399;52.530;13.304;2023-11-19T06:47:17;5.60;99.90
6724;DHT22;3399;52.530;13.304;2023-11-19T06:49:46;5.60;99.90
6724;DHT22;3399;52.530;13.304;2023-11-19T06:52:12;5.70;99.90
6724;DHT22;3399;52.530;13.304;2023-11-19T06:54:40;5.70;99.90
6724;DHT22;3399;52.530;13.304;2023-11-19T06:57:06;5.80;99.90
6724;DHT22;3399;52.530;13.304;2023-11-19T06:59:31;5.80;99.90
6724;DHT22;3399;52.530;13.304;2023-11-19T07:01:57;5.90;99.90
6724;DHT22;3399;52.530;13.304;2023-11-19T07:04:22;5.90;99.90
6724;DHT22;3399;52.530;13.304;2023-11-19T07:06:48;6.00;99.90
6724;DHT22;3399;52.530;13.304;2023-11-19T07:09:14;5.90;99.90
6724;DHT22;3399;52.530;13.304;2023-11-19T07:11:40;5.90;99.90
6724;DHT22;3399;52.530;13.304;2023-11-19T07:14:07;5.90;99.90
6724;DHT22;3399;52.530;13.304;2023-11-19T07:16:36;6.00;99.90
6724;DHT22;3399;52.530;13.304;2023-11-19T07:19:03;6.00;99.90
6724;DHT22;3399;52.530;13.304;2023-11-19T07:21:28;6.00;99.90
6724;DHT22;3399;52.530;13.304;2023-11-19T07:23:55;6.10;99.90
6724;DHT22;3399;52.530;13.304;2023-11-19T07:26:20;6.10;99.90
6724;DHT22;3399;52.530;13.304;2023-11-19T07:28:47;6.20;99.90
6724;DHT22;3399;52.530;13.304;2023-11-19T07:31:13;6.20;99.90
6724;DHT22;3399;52.530;13.304;2023-11-19T07:33:39;6.20;99.90
6724;DHT22;3399;52.530;13.304;2023-11-19T07:36:05;6.20;99.90
6724;DHT22;3399;52.530;13.304;2023-11-19T07:38:30;6.20;99.90
6724;DHT22;3399;52.530;13.304;2023-11-19T07:40:56;6.30;99.90
6724;DHT22;3399;52.530;13.304;2023-11-19T07:43:22;6.30;99.90
6724;DHT22;3399;52.530;13.304;2023-11-19T07:45:47;6.40;99.90
6724;DHT22;3399;52.530;13.304;2023-11-19T07:48:13;6.40;99.90
6724;DHT22;3399;52.530;13.304;2023-11-19T07:50:39;6.50;99.90
6724;DHT22;3399;52.530;13.304;2023-11-19T07:53:07;6.40;99.90
6724;DHT22;3399;52.530;13.304;2023-11-19T07:55:34;6.50;99.90
6724;DHT22;3399;52.530;13.304;2023-11-19T07:58:00;6.50;99.90
6724;DHT22;3399;52.530;13.304;2023-11-19T08:00:25;6.50;99.90
6724;DHT22;3399;52.530;13.304;2023-11-19T08:02:51;6.50;99.90
6724;DHT22;3399;52.530;13.304;2023-11-19T08:05:16;6.50;99.90
6724;DHT22;3399;52.530;13.304;2023-11-19T08:07:41;6.60;99.90
6724;DHT22;3399;52.530;13.304;2023-11-19T08:10:07;6.70;99.90
6724;DHT22;3399;52.530;13.304;2023-11-19T08:12:35;6.80;99.90
6724;DHT22;3399;52.530;13.304;2023-11-19T08:15:02;6.90;99.90
6724;DHT22;3399;52.530;13.304;2023-11-19T08:17:27;7.00;99.90
6724;DHT22;3399;52.530;13.304;2023-11-19T08:19:53;6.90;99.90
6724;DHT22;3399;52.530;13.304;2023-11-19T08:22:18;7.00;99.90
6724;DHT22;3399;52.530;13.304;2023-11-19T08:24:44;7.10;99.90
6724;DHT22;3399;52.530;13.304;2023-11-19T08:27:10;7.10;99.90
6724;DHT22;3399;52.530;13.304;2023-11-19T08:29:35;7.10;99.90
6724;DHT22;3399;52.530;13.304;2023-11-19T08:32:01;7.00;99.90
6724;DHT22;3399;52.530;13.304;2023-11-19T08:34:29;7.10;99.90
6724;DHT22;3399;52.530;13.304;2023-11-19T08:36:55;7.10;99.90
6724;DHT22;3399;52.530;13.304;2023-11-19T08:39:21;7.30;99.90
6724;DHT22;3399;52.530;13.304;2023-11-19T08:41:47;7.20;99.90
6724;DHT22;3399;52.530;13.304;2023-11-19T08:44:13;7.30;99.90
6724;DHT22;3399;52.530;13.304;2023-11-19T08:46:39;7.40;99.90
6724;DHT22;3399;52.530;13.304;2023-11-19T08:49:05;7.40;99.90
6724;DHT22;3399;52.530;13.304;2023-11-19T08:51:33;7.50;99.90
6724;DHT22;3399;52.530;13.304;2023-11-19T08:53:59;7.60;99.90
6724;DHT22;3399;52.530;13.304;2023-11-19T08:56:25;7.60;99.90
6724;DHT22;3399;52.530;13.304;2023-11-19T08:58:50;7.60;99.90
6724;DHT22;3399;52.530;13.304;2023-11-19T09:01:16;7.60;99.90
6724;DHT22;3399;52.530;13.304;2023-11-19T09:03:41;7.70;99.90
6724;DHT22;3399;52.530;13.304;2023-11-19T09:06:07;7.80;99.90
6724;DHT22;3399;52.530;13.304;2023-11-19T09:08:32;7.80;99.90
6724;DHT22;3399;52.530;13.304;2023-11-19T09:10:58;7.90;99.90
6724;DHT22;3399;52.530;13.304;2023-11-19T09:13:23;7.90;99.90
6724;DHT22;3399;52.530;13.304;2023-11-19T09:15:49;7.90;99.90
6724;DHT22;3399;52.530;13.304;2023-11-19T09:18:14;8.00;99.90
6724;DHT22;3399;52.530;13.304;2023-11-19T09:20:40;8.00;99.90
6724;DHT22;3399;52.530;13.304;2023-11-19T09:23:06;7.80;99.90
6724;DHT22;3399;52.530;13.304;2023-11-19T09:25:32;8.00;99.90
6724;DHT22;3399;52.530;13.304;2023-11-19T09:27:57;8.10;99.90
6724;DHT22;3399;52.530;13.304;2023-11-19T09:30:23;8.20;99.90
6724;DHT22;3399;52.530;13.304;2023-11-19T09:32:48;8.20;99.90
6724;DHT22;3399;52.530;13.304;2023-11-19T09:35:14;8.30;99.90
6724;DHT22;3399;52.530;13.304;2023-11-19T09:37:41;8.50;99.90
6724;DHT22;3399;52.530;13.304;2023-11-19T09:40:07;8.30;99.90
6724;DHT22;3399;52.530;13.304;2023-11-19T09:42:45;8.40;99.90
6724;DHT22;3399;52.530;13.304;2023-11-19T09:45:15;8.50;99.90
6724;DHT22;3399;52.530;13.304;2023-11-19T09:47:45;8.70;99.90
6724;DHT22;3399;52.530;13.304;2023-11-19T09:50:20;8.90;99.90
6724;DHT22;3399;52.530;13.304;2023-11-19T09:52:49;8.90;99.90
6724;DHT22;3399;52.530;13.304;2023-11-19T09:55:15;9.10;99.90
6724;DHT22;3399;52.530;13.304;2023-11-19T09:57:40;9.20;99.90
6724;DHT22;3399;52.530;13.304;2023-11-19T10:00:10;9.30;99.90
6724;DHT22;3399;52.530;13.304;2023-11-19T10:02:36;9.30;99.90
6724;DHT22;3399;52.530;13.304;2023-11-19T10:05:06;9.30;99.90
6724;DHT22;3399;52.530;13.304;2023-11-19T10:07:32;9.60;99.90
6724;DHT22;3399;52.530;13.304;2023-11-19T10:10:00;9.80;99.90
6724;DHT22;3399;52.530;13.304;2023-11-19T10:12:27;9.90;99.90
6724;DHT22;3399;52.530;13.304;2023-11-19T10:14:56;9.90;99.90
6724;DHT22;3399;52.530;13.304;2023-11-19T10:17:27;10.00;99.90
6724;DHT22;3399;52.530;13.304;2023-11-19T10:19:54;10.10;99.90
6724;DHT22;3399;52.530;13.304;2023-11-19T10:22:20;10.10;99.90
6724;DHT22;3399;52.530;13.304;2023-11-19T10:24:47;10.00;99.90
6724;DHT22;3399;52.530;13.304;2023-11-19T10:27:13;10.10;99.90
6724;DHT22;3399;52.530;13.304;2023-11-19T10:29:40;10.10;99.90
6724;DHT22;3399;52.530;13.304;2023-11-19T10:32:05;10.20;99.90
6724;DHT22;3399;52.530;13.304;2023-11-19T10:34:31;10.30;99.90
6724;DHT22;3399;52.530;13.304;2023-11-19T10:36:57;10.60;99.90
6724;DHT22;3399;52.530;13.304;2023-11-19T10:39:22;10.90;99.90
6724;DHT22;3399;52.530;13.304;2023-11-19T10:41:49;11.10;99.90
6724;DHT22;3399;52.530;13.304;2023-11-19T10:44:34;11.20;99.90
6724;DHT22;3399;52.530;13.304;2023-11-19T10:47:05;11.20;99.90
6724;DHT22;3399;52.530;13.304;2023-11-19T10:49:33;11.20;99.90
6724;DHT22;3399;52.530;13.304;2023-11-19T10:52:00;11.40;99.90
6724;DHT22;3399;52.530;13.304;2023-11-19T10:54:27;11.50;99.90
6724;DHT22;3399;52.530;13.304;2023-11-19T10:56:59;11.60;99.90
6724;DHT22;3399;52.530;13.304;2023-11-19T10:59:29;11.50;99.90
6724;DHT22;3399;52.530;13.304;2023-11-19T11:01:56;11.60;99.90
6724;DHT22;3399;52.530;13.304;2023-11-19T11:04:25;11.60;99.90
6724;DHT22;3399;52.530;13.304;2023-11-19T11:06:54;11.60;99.90
6724;DHT22;3399;52.530;13.304;2023-11-19T11:09:26;11.60;99.90
6724;DHT22;3399;52.530;13.304;2023-11-19T11:11:51;11.70;99.90
6724;DHT22;3399;52.530;13.304;2023-11-19T11:14:21;11.70;99.90
6724;DHT22;3399;52.530;13.304;2023-11-19T11:16:48;11.90;99.90
6724;DHT22;3399;52.530;13.304;2023-11-19T11:19:16;12.10;99.90
6724;DHT22;3399;52.530;13.304;2023-11-19T11:21:45;12.20;99.90
6724;DHT22;3399;52.530;13.304;2023-11-19T11:27:39;12.40;99.90
6724;DHT22;3399;52.530;13.304;2023-11-19T11:30:25;12.10;99.90
6724;DHT22;3399;52.530;13.304;2023-11-19T11:33:15;12.30;99.90
6724;DHT22;3399;52.530;13.304;2023-11-19T11:38:14;13.00;99.90
6724;DHT22;3399;52.530;13.304;2023-11-19T11:40:40;13.40;99.90
6724;DHT22;3399;52.530;13.304;2023-11-19T11:43:44;13.90;99.90
6724;DHT22;3399;52.530;13.304;2023-11-19T11:49:03;13.80;99.90
6724;DHT22;3399;52.530;13.304;2023-11-19T11:57:07;13.40;99.90
6724;DHT22;3399;52.530;13.304;2023-11-19T12:02:16;13.10;99.90
6724;DHT22;3399;52.530;13.304;2023-11-19T12:04:42;12.80;99.90
6724;DHT22;3399;52.530;13.304;2023-11-19T12:07:12;12.90;99.90
6724;DHT22;3399;52.530;13.304;2023-11-19T12:09:42;12.70;99.90
6724;DHT22;3399;52.530;13.304;2023-11-19T12:12:28;12.70;99.90
6724;DHT22;3399;52.530;13.304;2023-11-19T12:15:08;12.70;99.90
6724;DHT22;3399;52.530;13.304;2023-11-19T12:17:40;12.60;99.90
6724;DHT22;3399;52.530;13.304;2023-11-19T12:20:06;12.70;99.90
6724;DHT22;3399;52.530;13.304;2023-11-19T12:22:40;12.50;99.90
6724;DHT22;3399;52.530;13.304;2023-11-19T12:25:07;12.50;99.90
6724;DHT22;3399;52.530;13.304;2023-11-19T12:27:43;12.50;99.90
6724;DHT22;3399;52.530;13.304;2023-11-19T12:30:09;12.50;99.90
6724;DHT22;3399;52.530;13.304;2023-11-19T12:32:42;12.40;99.90
6724;DHT22;3399;52.530;13.304;2023-11-19T12:35:09;12.40;99.90
6724;DHT22;3399;52.530;13.304;2023-11-19T12:37:48;12.20;99.90
6724;DHT22;3399;52.530;13.304;2023-11-19T12:40:15;12.10;99.90
6724;DHT22;3399;52.530;13.304;2023-11-19T12:42:41;12.20;99.90
6724;DHT22;3399;52.530;13.304;2023-11-19T12:58:36;11.90;99.90
6724;DHT22;3399;52.530;13.304;2023-11-19T13:01:02;11.70;99.90
6724;DHT22;3399;52.530;13.304;2023-11-19T13:03:38;11.60;99.90
6724;DHT22;3399;52.530;13.304;2023-11-19T13:06:08;11.70;99.90
6724;DHT22;3399;52.530;13.304;2023-11-19T13:11:06;12.00;99.90
6724;DHT22;3399;52.530;13.304;2023-11-19T13:13:33;12.00;99.90
6724;DHT22;3399;52.530;13.304;2023-11-19T13:16:15;12.00;99.90
6724;DHT22;3399;52.530;13.304;2023-11-19T13:18:40;12.20;99.90
6724;DHT22;3399;52.530;13.304;2023-11-19T13:21:06;12.10;99.90
6724;DHT22;3399;52.530;13.304;2023-11-19T13:23:31;12.10;99.90
6724;DHT22;3399;52.530;13.304;2023-11-19T13:25:57;12.00;99.90
6724;DHT22;3399;52.530;13.304;2023-11-19T13:28:22;12.00;99.90
6724;DHT22;3399;52.530;13.304;2023-11-19T13:30:48;12.00;99.90
6724;DHT22;3399;52.530;13.304;2023-11-19T13:33:13;12.10;99.90
6724;DHT22;3399;52.530;13.304;2023-11-19T13:35:39;12.00;99.90
6724;DHT22;3399;52.530;13.304;2023-11-19T13:38:07;12.00;99.90
6724;DHT22;3399;52.530;13.304;2023-11-19T13:40:34;11.90;99.90
6724;DHT22;3399;52.530;13.304;2023-11-19T13:43:00;12.00;99.90
6724;DHT22;3399;52.530;13.304;2023-11-19T13:45:25;12.00;99.90
6724;DHT22;3399;52.530;13.304;2023-11-19T13:47:50;11.90;99.90
6724;DHT22;3399;52.530;13.304;2023-11-19T13:50:16;12.00;99.90
6724;DHT22;3399;52.530;13.304;2023-11-19T13:52:43;11.90;99.90
6724;DHT22;3399;52.530;13.304;2023-11-19T13:55:10;11.90;99.90
6724;DHT22;3399;52.530;13.304;2023-11-19T13:57:37;11.90;99.90
6724;DHT22;3399;52.530;13.304;2023-11-19T14:00:04;12.00;99.90
6724;DHT22;3399;52.530;13.304;2023-11-19T14:02:41;12.00;99.90
6724;DHT22;3399;52.530;13.304;2023-11-19T14:05:07;12.00;99.90
6724;DHT22;3399;52.530;13.304;2023-11-19T14:07:33;12.10;99.90
6724;DHT22;3399;52.530;13.304;2023-11-19T14:09:59;12.10;99.90
6724;DHT22;3399;52.530;13.304;2023-11-19T14:12:24;12.10;99.90
6724;DHT22;3399;52.530;13.304;2023-11-19T14:14:50;12.00;99.90
6724;DHT22;3399;52.530;13.304;2023-11-19T14:17:15;11.90;99.90
6724;DHT22;3399;52.530;13.304;2023-11-19T14:19:44;11.80;99.90
6724;DHT22;3399;52.530;13.304;2023-11-19T14:22:10;11.90;99.90
6724;DHT22;3399;52.530;13.304;2023-11-19T14:24:37;11.80;99.90
6724;DHT22;3399;52.530;13.304;2023-11-19T14:27:02;12.00;99.90
6724;DHT22;3399;52.530;13.304;2023-11-19T14:29:28;11.90;99.90
6724;DHT22;3399;52.530;13.304;2023-11-19T14:31:55;11.90;99.90
6724;DHT22;3399;52.530;13.304;2023-11-19T14:34:21;11.80;99.90
6724;DHT22;3399;52.530;13.304;2023-11-19T14:36:47;12.00;99.90
6724;DHT22;3399;52.530;13.304;2023-11-19T14:39:13;11.90;99.90
6724;DHT22;3399;52.530;13.304;2023-11-19T14:41:38;11.80;99.90
6724;DHT22;3399;52.530;13.304;2023-11-19T14:44:04;11.80;99.90
6724;DHT22;3399;52.530;13.304;2023-11-19T14:46:31;11.90;99.90
6724;DHT22;3399;52.530;13.304;2023-11-19T14:48:57;11.80;99.90
6724;DHT22;3399;52.530;13.304;2023-11-19T14:51:23;11.80;99.90
6724;DHT22;3399;52.530;13.304;2023-11-19T14:53:49;11.70;99.90
6724;DHT22;3399;52.530;13.304;2023-11-19T14:56:14;11.70;99.90
6724;DHT22;3399;52.530;13.304;2023-11-19T14:58:40;11.70;99.90
6724;DHT22;3399;52.530;13.304;2023-11-19T15:01:06;11.90;99.90
6724;DHT22;3399;52.530;13.304;2023-11-19T15:03:33;12.00;99.90
6724;DHT22;3399;52.530;13.304;2023-11-19T15:05:58;12.00;99.90
6724;DHT22;3399;52.530;13.304;2023-11-19T15:08:24;12.00;99.90
6724;DHT22;3399;52.530;13.304;2023-11-19T15:10:50;12.00;99.90
6724;DHT22;3399;52.530;13.304;2023-11-19T15:13:15;12.10;99.90
6724;DHT22;3399;52.530;13.304;2023-11-19T15:15:41;12.00;99.90
6724;DHT22;3399;52.530;13.304;2023-11-19T15:18:07;12.10;99.90
6724;DHT22;3399;52.530;13.304;2023-11-19T15:20:32;12.00;99.90
6724;DHT22;3399;52.530;13.304;2023-11-19T15:22:58;12.00;99.90
6724;DHT22;3399;52.530;13.304;2023-11-19T15:25:24;12.00;99.90
6724;DHT22;3399;52.530;13.304;2023-11-19T15:27:50;12.00;99.90
6724;DHT22;3399;52.530;13.304;2023-11-19T15:30:15;11.90;99.90
6724;DHT22;3399;52.530;13.304;2023-11-19T15:32:42;12.00;99.90
6724;DHT22;3399;52.530;13.304;2023-11-19T15:35:11;12.00;99.90
6724;DHT22;3399;52.530;13.304;2023-11-19T15:37:41;11.90;99.90
6724;DHT22;3399;52.530;13.304;2023-11-19T15:40:09;12.00;99.90
6724;DHT22;3399;52.530;13.304;2023-11-19T15:42:37;11.90;99.90
6724;DHT22;3399;52.530;13.304;2023-11-19T15:45:03;11.90;99.90
6724;DHT22;3399;52.530;13.304;2023-11-19T15:47:30;12.00;99.90
6724;DHT22;3399;52.530;13.304;2023-11-19T15:49:56;12.00;99.90
6724;DHT22;3399;52.530;13.304;2023-11-19T15:52:21;12.00;99.90
6724;DHT22;3399;52.530;13.304;2023-11-19T15:54:47;12.00;99.90
6724;DHT22;3399;52.530;13.304;2023-11-19T15:57:13;11.90;99.90
6724;DHT22;3399;52.530;13.304;2023-11-19T15:59:39;11.80;99.90
6724;DHT22;3399;52.530;13.304;2023-11-19T16:02:04;11.90;99.90
6724;DHT22;3399;52.530;13.304;2023-11-19T16:04:30;12.00;99.90
6724;DHT22;3399;52.530;13.304;2023-11-19T16:06:55;11.90;99.90
6724;DHT22;3399;52.530;13.304;2023-11-19T16:09:21;11.70;99.90
6724;DHT22;3399;52.530;13.304;2023-11-19T16:11:48;11.80;99.90
6724;DHT22;3399;52.530;13.304;2023-11-19T16:14:13;11.80;99.90
6724;DHT22;3399;52.530;13.304;2023-11-19T16:16:40;11.80;99.90
6724;DHT22;3399;52.530;13.304;2023-11-19T16:19:06;11.80;99.90
6724;DHT22;3399;52.530;13.304;2023-11-19T16:21:33;11.90;99.90
6724;DHT22;3399;52.530;13.304;2023-11-19T16:24:00;11.90;99.90
6724;DHT22;3399;52.530;13.304;2023-11-19T16:26:27;12.00;99.90
6724;DHT22;3399;52.530;13.304;2023-11-19T16:28:54;12.00;99.90
6724;DHT22;3399;52.530;13.304;2023-11-19T16:31:20;11.90;99.90